createdAt,value
2018-03-07T00:01:40.765Z,1.24
2018-03-07T00:04:09.110Z,1.21
2018-03-07T00:06:37.451Z,1.25
2018-03-07T00:09:05.846Z,1.26
2018-03-07T00:11:34.235Z,1.28
2018-03-07T00:14:02.638Z,1.25
2018-03-07T00:16:30.961Z,1.33
2018-03-07T00:18:59.297Z,1.32
2018-03-07T00:21:27.616Z,1.29
2018-03-07T00:23:55.946Z,1.30
2018-03-07T00:26:24.270Z,1.32
2018-03-07T00:28:52.654Z,1.33
2018-03-07T00:31:21.052Z,1.29
2018-03-07T00:33:49.434Z,1.38
2018-03-07T00:36:17.823Z,1.32
2018-03-07T00:38:46.161Z,1.35
2018-03-07T00:41:14.482Z,1.38
2018-03-07T00:43:42.907Z,1.37
2018-03-07T00:46:11.226Z,1.35
2018-03-07T00:48:39.594Z,1.34
2018-03-07T00:51:07.901Z,1.34
2018-03-07T00:53:36.251Z,1.35
2018-03-07T00:56:04.625Z,1.41
2018-03-07T00:58:33.053Z,1.39
2018-03-07T01:01:01.555Z,1.43
2018-03-07T01:03:29.877Z,1.43
2018-03-07T01:05:58.222Z,1.41
2018-03-07T01:08:26.562Z,1.36
2018-03-07T01:10:54.902Z,1.42
2018-03-07T01:13:23.322Z,1.38
2018-03-07T01:15:51.667Z,1.46
2018-03-07T01:18:19.984Z,1.39
2018-03-07T01:20:48.328Z,1.42
2018-03-07T01:23:16.687Z,1.47
2018-03-07T01:25:45.014Z,1.50
2018-03-07T01:28:13.359Z,1.48
2018-03-07T01:30:41.729Z,1.47
2018-03-07T01:33:10.058Z,1.51
2018-03-07T01:35:38.439Z,1.39
2018-03-07T01:38:06.829Z,1.35
2018-03-07T01:40:35.210Z,1.30
2018-03-07T01:43:03.607Z,1.29
2018-03-07T01:45:32.001Z,1.27
2018-03-07T01:48:00.359Z,1.36
2018-03-07T01:50:28.687Z,1.28
2018-03-07T01:52:57.068Z,1.22
2018-03-07T01:55:25.465Z,1.23
2018-03-07T01:57:53.802Z,1.21
2018-03-07T02:00:22.122Z,1.29
2018-03-07T02:02:51.638Z,1.30
2018-03-07T02:05:19.978Z,1.31
2018-03-07T02:07:48.302Z,1.24
2018-03-07T02:10:16.626Z,1.23
2018-03-07T02:12:44.974Z,1.23
2018-03-07T02:15:13.300Z,1.27
2018-03-07T02:17:41.636Z,1.35
2018-03-07T02:20:09.978Z,1.31
2018-03-07T02:22:38.315Z,1.35
2018-03-07T02:25:06.633Z,1.27
2018-03-07T02:27:34.959Z,1.20
2018-03-07T02:30:03.309Z,1.25
2018-03-07T02:32:31.621Z,1.26
2018-03-07T02:34:59.945Z,1.34
2018-03-07T02:37:28.287Z,1.33
2018-03-07T02:39:56.606Z,1.33
2018-03-07T02:42:24.952Z,1.31
2018-03-07T02:44:53.338Z,1.34
2018-03-07T02:47:21.869Z,1.35
2018-03-07T02:49:50.301Z,1.33
2018-03-07T02:52:18.693Z,1.31
2018-03-07T02:54:47.075Z,1.27
2018-03-07T02:57:15.479Z,1.28
2018-03-07T02:59:43.884Z,1.27
2018-03-07T03:02:12.294Z,1.21
2018-03-07T03:04:40.631Z,1.24
2018-03-07T03:07:08.944Z,1.39
2018-03-07T03:09:37.273Z,1.41
2018-03-07T03:12:05.589Z,1.40
2018-03-07T03:14:34.015Z,1.38
2018-03-07T03:17:02.343Z,1.33
2018-03-07T03:19:30.686Z,1.28
2018-03-07T03:21:59.007Z,1.25
2018-03-07T03:24:27.344Z,1.18
2018-03-07T03:26:55.808Z,1.25
2018-03-07T03:29:24.152Z,1.26
2018-03-07T03:31:52.586Z,1.24
2018-03-07T03:34:20.997Z,1.23
2018-03-07T03:36:49.288Z,1.24
2018-03-07T03:39:17.730Z,1.20
2018-03-07T03:41:46.118Z,1.24
2018-03-07T03:44:14.486Z,1.19
2018-03-07T03:46:42.812Z,1.16
2018-03-07T03:49:11.197Z,1.12
2018-03-07T03:51:39.612Z,1.11
2018-03-07T03:54:07.953Z,1.10
2018-03-07T03:56:36.378Z,1.05
2018-03-07T03:59:04.757Z,1.03
2018-03-07T04:01:33.081Z,1.03
2018-03-07T04:04:01.406Z,1.01
2018-03-07T04:06:29.736Z,1.05
2018-03-07T04:08:58.125Z,1.03
2018-03-07T04:11:26.523Z,1.01
2018-03-07T04:13:54.853Z,1.03
2018-03-07T04:16:23.209Z,1.00
2018-03-07T04:18:51.631Z,1.01
2018-03-07T04:21:19.964Z,0.96
2018-03-07T04:23:48.280Z,0.96
2018-03-07T04:26:16.616Z,1.01
2018-03-07T04:28:44.938Z,0.95
2018-03-07T04:31:13.292Z,0.95
2018-03-07T04:33:41.598Z,0.97
2018-03-07T04:36:09.936Z,0.93
2018-03-07T04:38:38.240Z,0.91
2018-03-07T04:41:06.568Z,0.93
2018-03-07T04:43:34.906Z,0.97
2018-03-07T04:46:03.285Z,0.99
2018-03-07T04:48:31.615Z,0.92
2018-03-07T04:50:59.942Z,0.96
2018-03-07T04:53:28.268Z,0.89
2018-03-07T04:55:56.590Z,0.86
2018-03-07T04:58:24.929Z,0.85
2018-03-07T05:00:53.270Z,0.81
2018-03-07T05:03:21.592Z,0.84
2018-03-07T05:05:49.921Z,0.90
2018-03-07T05:08:18.284Z,0.94
2018-03-07T05:10:46.738Z,0.95
2018-03-07T05:13:15.057Z,0.97
2018-03-07T05:15:43.411Z,0.95
2018-03-07T05:18:11.748Z,0.97
2018-03-07T05:20:40.075Z,1.00
2018-03-07T05:23:08.431Z,0.94
2018-03-07T05:25:36.729Z,0.94
2018-03-07T05:28:05.136Z,0.94
2018-03-07T05:30:33.449Z,0.95
2018-03-07T05:33:01.787Z,1.05
2018-03-07T05:35:30.135Z,1.02
2018-03-07T05:37:58.518Z,1.03
2018-03-07T05:40:26.839Z,1.04
2018-03-07T05:42:55.188Z,1.00
2018-03-07T05:45:23.588Z,1.81
2018-03-07T05:47:51.910Z,2.09
2018-03-07T05:50:20.256Z,2.47
2018-03-07T05:52:48.600Z,2.50
2018-03-07T05:55:16.915Z,2.51
2018-03-07T05:57:45.251Z,2.65
2018-03-07T06:00:13.649Z,2.13
2018-03-07T06:02:42.038Z,2.02
2018-03-07T06:05:11.973Z,1.66
2018-03-07T06:07:40.617Z,1.52
2018-03-07T06:10:09.031Z,1.49
2018-03-07T06:12:37.438Z,1.42
2018-03-07T06:15:05.826Z,1.37
2018-03-07T06:17:34.231Z,1.29
2018-03-07T06:20:02.640Z,1.21
2018-03-07T06:22:31.032Z,1.18
2018-03-07T06:24:59.402Z,1.15
2018-03-07T06:27:27.717Z,1.16
2018-03-07T06:29:56.115Z,1.18
2018-03-07T06:32:24.439Z,1.15
2018-03-07T06:34:52.768Z,1.18
2018-03-07T06:37:21.094Z,1.14
2018-03-07T06:39:49.450Z,1.13
2018-03-07T06:42:17.783Z,1.14
2018-03-07T06:44:46.128Z,1.20
2018-03-07T06:47:14.517Z,1.16
2018-03-07T06:49:42.837Z,1.14
2018-03-07T06:52:11.176Z,1.13
2018-03-07T06:54:39.744Z,1.14
2018-03-07T06:57:08.062Z,1.16
2018-03-07T06:59:36.393Z,1.22
2018-03-07T07:02:04.725Z,1.23
2018-03-07T07:04:33.055Z,1.25
2018-03-07T07:07:01.402Z,1.25
2018-03-07T07:09:29.761Z,1.32
2018-03-07T07:11:58.059Z,1.32
2018-03-07T07:14:26.469Z,1.29
2018-03-07T07:16:54.874Z,1.28
2018-03-07T07:19:23.186Z,1.30
2018-03-07T07:21:51.591Z,1.37
2018-03-07T07:24:19.928Z,1.39
2018-03-07T07:26:48.253Z,1.39
2018-03-07T07:29:16.572Z,1.42
2018-03-07T07:31:45.345Z,1.41
2018-03-07T07:34:13.671Z,1.40
2018-03-07T07:36:42.175Z,1.32
2018-03-07T07:39:10.513Z,1.36
2018-03-07T07:41:38.902Z,1.40
2018-03-07T07:44:07.232Z,1.47
2018-03-07T07:46:35.614Z,1.54
2018-03-07T07:49:03.918Z,1.58
2018-03-07T07:51:32.256Z,1.58
2018-03-07T07:54:00.680Z,1.68
2018-03-07T07:56:29.053Z,1.71
2018-03-07T07:58:57.462Z,1.79
2018-03-07T08:01:25.797Z,1.89
2018-03-07T08:03:54.121Z,1.99
2018-03-07T08:06:22.467Z,2.10
2018-03-07T08:08:50.787Z,2.20
2018-03-07T08:11:19.158Z,2.28
2018-03-07T08:13:47.603Z,2.29
2018-03-07T08:16:15.936Z,2.51
2018-03-07T08:18:44.273Z,2.44
2018-03-07T08:21:12.607Z,2.44
2018-03-07T08:23:40.951Z,2.63
2018-03-07T08:26:09.336Z,2.67
2018-03-07T08:28:37.758Z,2.72
2018-03-07T08:31:06.091Z,2.63
2018-03-07T08:33:34.426Z,2.59
2018-03-07T08:36:02.773Z,2.71
2018-03-07T08:38:31.103Z,2.80
2018-03-07T08:40:59.424Z,2.71
2018-03-07T08:43:27.816Z,2.60
2018-03-07T08:45:56.148Z,2.58
2018-03-07T08:48:24.466Z,2.79
2018-03-07T08:50:52.798Z,2.73
2018-03-07T08:53:21.295Z,2.73
2018-03-07T08:55:49.629Z,2.70
2018-03-07T08:58:18.041Z,2.76
2018-03-07T09:00:46.388Z,2.67
2018-03-07T09:03:14.700Z,2.54
2018-03-07T09:05:43.075Z,2.60
2018-03-07T09:08:11.377Z,2.42
2018-03-07T09:10:39.707Z,2.60
2018-03-07T09:13:08.024Z,2.53
2018-03-07T09:15:36.368Z,2.40
2018-03-07T09:18:04.799Z,2.42
2018-03-07T09:20:33.189Z,2.40
2018-03-07T09:23:01.522Z,2.35
2018-03-07T09:25:29.902Z,2.44
2018-03-07T09:27:58.224Z,2.49
2018-03-07T09:30:26.661Z,2.45
2018-03-07T09:32:55.079Z,2.63
2018-03-07T09:35:23.459Z,2.72
2018-03-07T09:37:51.799Z,2.88
2018-03-07T09:40:20.151Z,2.98
2018-03-07T09:42:48.485Z,3.16
2018-03-07T09:45:16.834Z,3.08
2018-03-07T09:47:45.170Z,3.14
2018-03-07T09:50:13.519Z,3.25
2018-03-07T09:52:41.903Z,3.16
2018-03-07T09:55:10.245Z,2.99
2018-03-07T09:57:38.622Z,3.08
2018-03-07T10:00:06.969Z,3.16
2018-03-07T10:02:35.308Z,3.19
2018-03-07T10:05:03.626Z,3.32
2018-03-07T10:07:32.038Z,3.52
2018-03-07T10:10:00.365Z,3.27
2018-03-07T10:12:28.719Z,3.54
2018-03-07T10:14:57.073Z,3.66
2018-03-07T10:17:25.415Z,3.86
2018-03-07T10:19:53.822Z,4.11
2018-03-07T10:22:22.152Z,4.46
2018-03-07T10:24:50.470Z,4.39
2018-03-07T10:27:18.874Z,4.70
2018-03-07T10:29:47.470Z,5.05
2018-03-07T10:32:15.810Z,5.60
2018-03-07T10:34:44.135Z,5.67
2018-03-07T10:37:12.474Z,5.25
2018-03-07T10:39:40.817Z,5.13
2018-03-07T10:42:09.146Z,5.25
2018-03-07T10:44:37.469Z,5.44
2018-03-07T10:47:05.887Z,5.36
2018-03-07T10:49:34.182Z,5.39
2018-03-07T10:52:02.512Z,5.29
2018-03-07T10:54:30.847Z,5.47
2018-03-07T10:56:59.167Z,5.71
2018-03-07T10:59:27.498Z,5.73
2018-03-07T11:01:55.877Z,6.14
2018-03-07T11:04:24.282Z,5.60
2018-03-07T11:06:52.634Z,5.40
2018-03-07T11:09:20.946Z,5.38
2018-03-07T11:11:49.351Z,5.30
2018-03-07T11:14:17.745Z,5.35
2018-03-07T11:16:46.154Z,5.22
2018-03-07T11:19:14.485Z,4.88
2018-03-07T11:21:42.905Z,4.87
2018-03-07T11:24:11.844Z,4.83
2018-03-07T11:26:40.189Z,4.92
2018-03-07T11:29:08.591Z,5.03
2018-03-07T11:31:36.995Z,5.14
2018-03-07T11:34:05.384Z,5.03
2018-03-07T11:36:33.787Z,4.74
2018-03-07T11:39:02.134Z,4.54
2018-03-07T11:41:30.573Z,4.65
2018-03-07T11:43:58.914Z,4.37
2018-03-07T11:46:27.239Z,4.22
2018-03-07T11:48:55.637Z,4.32
2018-03-07T11:51:23.968Z,4.39
2018-03-07T11:53:52.318Z,4.36
2018-03-07T11:56:20.712Z,4.50
2018-03-07T11:58:49.028Z,4.61
2018-03-07T12:01:17.387Z,4.49
2018-03-07T12:03:45.787Z,4.51
2018-03-07T12:06:14.109Z,4.42
2018-03-07T12:08:42.436Z,4.41
2018-03-07T12:11:10.793Z,4.45
2018-03-07T12:13:39.132Z,4.46
2018-03-07T12:16:07.450Z,4.46
2018-03-07T12:18:35.841Z,4.40
2018-03-07T12:21:04.158Z,4.49
2018-03-07T12:23:32.517Z,4.56
2018-03-07T12:26:00.905Z,4.59
2018-03-07T12:28:29.294Z,4.57
2018-03-07T12:30:57.695Z,4.51
2018-03-07T12:33:26.020Z,4.53
2018-03-07T12:35:54.377Z,4.53
2018-03-07T12:38:22.795Z,4.55
2018-03-07T12:40:51.130Z,4.51
2018-03-07T12:43:19.725Z,4.50
2018-03-07T12:45:48.272Z,4.55
2018-03-07T12:48:16.662Z,4.76
2018-03-07T12:50:45.050Z,4.77
2018-03-07T12:53:13.423Z,4.80
2018-03-07T12:55:41.842Z,4.87
2018-03-07T12:58:10.173Z,4.84
2018-03-07T13:00:38.830Z,4.82
2018-03-07T13:03:07.470Z,4.81
2018-03-07T13:05:35.834Z,4.91
2018-03-07T13:08:04.189Z,4.87
2018-03-07T13:10:32.539Z,4.83
2018-03-07T13:13:01.888Z,4.99
2018-03-07T13:15:30.225Z,5.06
2018-03-07T13:17:58.614Z,5.11
2018-03-07T13:20:26.961Z,5.31
2018-03-07T13:22:55.307Z,5.37
2018-03-07T13:25:23.637Z,5.48
2018-03-07T13:27:52.004Z,5.39
2018-03-07T13:30:20.610Z,5.26
2018-03-07T13:32:48.985Z,5.26
2018-03-07T13:35:17.312Z,5.26
2018-03-07T13:37:45.653Z,5.24
2018-03-07T13:40:13.995Z,5.14
2018-03-07T13:42:42.323Z,5.19
2018-03-07T13:45:10.869Z,5.19
2018-03-07T13:47:39.335Z,5.12
2018-03-07T13:50:07.658Z,5.14
2018-03-07T13:52:36.015Z,5.24
2018-03-07T13:55:04.355Z,5.32
2018-03-07T13:57:32.710Z,5.32
2018-03-07T14:00:01.052Z,5.39
2018-03-07T14:02:29.372Z,5.45
2018-03-07T14:04:57.774Z,5.50
2018-03-07T14:07:26.098Z,5.53
2018-03-07T14:09:54.466Z,5.50
2018-03-07T14:12:22.792Z,5.55
2018-03-07T14:14:51.115Z,5.56
2018-03-07T14:17:19.442Z,5.59
2018-03-07T14:19:47.837Z,5.67
2018-03-07T14:22:16.175Z,5.85
2018-03-07T14:24:44.510Z,5.79
2018-03-07T14:27:12.824Z,5.89
2018-03-07T14:29:41.395Z,6.00
2018-03-07T14:32:09.807Z,5.94
2018-03-07T14:34:38.239Z,6.10
2018-03-07T14:37:06.492Z,6.20
2018-03-07T14:39:34.877Z,6.15
2018-03-07T14:42:03.272Z,6.17
2018-03-07T14:44:31.608Z,6.36
2018-03-07T14:46:59.985Z,6.56
2018-03-07T14:49:28.297Z,6.80
2018-03-07T14:51:56.630Z,6.68
2018-03-07T14:54:24.946Z,6.81
2018-03-07T14:56:53.288Z,6.89
2018-03-07T14:59:22.440Z,6.95
2018-03-07T15:01:50.766Z,6.98
2018-03-07T15:04:19.144Z,7.06
2018-03-07T15:06:47.645Z,7.10
2018-03-07T15:09:15.962Z,7.18
2018-03-07T15:11:44.341Z,7.29
2018-03-07T15:14:12.654Z,7.52
2018-03-07T15:16:41.002Z,8.21
2018-03-07T15:19:09.322Z,8.62
2018-03-07T15:21:37.654Z,8.93
2018-03-07T15:24:05.998Z,9.11
2018-03-07T15:26:34.337Z,9.26
2018-03-07T15:29:02.655Z,9.22
2018-03-07T15:31:31.057Z,9.08
2018-03-07T15:33:59.383Z,9.03
2018-03-07T15:36:27.739Z,9.15
2018-03-07T15:38:56.054Z,9.48
2018-03-07T15:41:24.724Z,9.50
2018-03-07T15:43:53.194Z,9.12
2018-03-07T15:46:22.505Z,8.98
2018-03-07T15:48:50.818Z,8.83
2018-03-07T15:51:19.169Z,8.67
2018-03-07T15:53:47.526Z,8.50
2018-03-07T15:56:15.978Z,8.48
2018-03-07T15:58:44.300Z,8.43
2018-03-07T16:01:12.658Z,8.35
2018-03-07T16:03:41.043Z,8.36
2018-03-07T16:06:09.357Z,8.22
2018-03-07T16:08:37.767Z,7.99
2018-03-07T16:11:06.087Z,7.85
2018-03-07T16:13:34.423Z,7.58
2018-03-07T16:16:02.757Z,7.54
2018-03-07T16:18:31.141Z,7.49
2018-03-07T16:20:59.468Z,7.46
2018-03-07T16:23:27.793Z,7.28
2018-03-07T16:25:56.225Z,7.21
2018-03-07T16:28:24.633Z,7.15
2018-03-07T16:30:53.153Z,6.97
2018-03-07T16:33:21.553Z,6.90
2018-03-07T16:35:49.892Z,6.79
2018-03-07T16:38:18.281Z,6.82
2018-03-07T16:40:46.685Z,6.77
2018-03-07T16:43:15.002Z,6.77
2018-03-07T16:45:43.318Z,6.75
2018-03-07T16:48:12.271Z,6.72
2018-03-07T16:50:40.592Z,6.66
2018-03-07T16:53:08.938Z,6.60
2018-03-07T16:55:37.337Z,6.46
2018-03-07T16:58:05.660Z,6.41
2018-03-07T17:00:34.017Z,6.33
2018-03-07T17:03:02.430Z,6.32
2018-03-07T17:05:30.819Z,6.43
2018-03-07T17:07:59.135Z,6.50
2018-03-07T17:10:27.470Z,6.48
2018-03-07T17:12:55.792Z,6.47
2018-03-07T17:15:24.179Z,6.63
2018-03-07T17:17:52.566Z,6.73
2018-03-07T17:20:20.886Z,6.79
2018-03-07T17:22:49.195Z,6.80
2018-03-07T17:25:17.530Z,6.78
2018-03-07T17:27:45.889Z,6.76
2018-03-07T17:30:14.254Z,6.71
2018-03-07T17:32:42.572Z,6.74
2018-03-07T17:35:10.954Z,6.74
2018-03-07T17:37:39.313Z,6.78
2018-03-07T17:40:07.733Z,6.78
2018-03-07T17:42:36.083Z,6.81
2018-03-07T17:45:04.535Z,6.74
2018-03-07T17:47:45.812Z,6.72
2018-03-07T17:50:15.765Z,6.69
2018-03-07T17:52:44.086Z,6.74
2018-03-07T17:55:12.478Z,6.75
2018-03-07T17:57:40.801Z,6.80
2018-03-07T18:00:09.168Z,6.84
2018-03-07T18:02:37.579Z,6.84
2018-03-07T18:05:05.926Z,6.81
2018-03-07T18:07:34.242Z,6.88
2018-03-07T18:10:02.750Z,6.93
2018-03-07T18:12:31.077Z,6.99
2018-03-07T18:14:59.449Z,7.03
2018-03-07T18:17:27.805Z,7.07
2018-03-07T18:19:56.111Z,7.13
2018-03-07T18:22:24.483Z,7.17
2018-03-07T18:24:53.008Z,7.18
2018-03-07T18:27:21.350Z,7.10
2018-03-07T18:29:49.653Z,7.09
2018-03-07T18:32:17.972Z,7.12
2018-03-07T18:34:46.332Z,7.16
2018-03-07T18:37:14.658Z,7.15
2018-03-07T18:39:43.053Z,7.16
2018-03-07T18:42:11.419Z,7.21
2018-03-07T18:44:39.738Z,7.23
2018-03-07T18:47:08.169Z,7.19
2018-03-07T18:49:36.491Z,7.20
2018-03-07T18:52:04.807Z,7.07
2018-03-07T18:54:33.190Z,7.16
2018-03-07T18:57:01.535Z,7.08
2018-03-07T18:59:29.861Z,7.03
2018-03-07T19:01:58.261Z,6.93
2018-03-07T19:04:26.577Z,6.97
2018-03-07T19:06:54.891Z,7.00
2018-03-07T19:09:23.219Z,7.05
2018-03-07T19:11:51.566Z,7.02
2018-03-07T19:14:19.928Z,7.01
2018-03-07T19:16:48.343Z,7.51
2018-03-07T19:19:16.841Z,7.31
2018-03-07T19:21:45.478Z,7.22
2018-03-07T19:24:13.797Z,7.07
2018-03-07T19:26:42.105Z,7.08
2018-03-07T19:29:10.562Z,7.02
2018-03-07T19:31:38.845Z,7.01
2018-03-07T19:34:07.157Z,7.02
2018-03-07T19:36:35.490Z,6.97
2018-03-07T19:39:03.841Z,6.96
2018-03-07T19:41:32.177Z,6.92
2018-03-07T19:44:00.582Z,6.91
2018-03-07T19:46:28.883Z,7.00
2018-03-07T19:48:57.240Z,6.93
2018-03-07T19:51:25.631Z,6.86
2018-03-07T19:53:53.985Z,6.87
2018-03-07T19:56:22.315Z,6.93
2018-03-07T19:58:50.658Z,6.89
2018-03-07T20:01:19.002Z,6.88
2018-03-07T20:03:47.384Z,6.96
2018-03-07T20:06:15.717Z,7.01
2018-03-07T20:08:44.080Z,6.95
2018-03-07T20:11:12.394Z,6.96
2018-03-07T20:13:40.706Z,6.93
2018-03-07T20:16:09.049Z,6.95
2018-03-07T20:18:37.359Z,6.86
2018-03-07T20:21:05.677Z,6.83
2018-03-07T20:23:33.998Z,6.84
2018-03-07T20:26:02.317Z,6.78
2018-03-07T20:28:30.653Z,6.79
2018-03-07T20:30:58.974Z,6.82
2018-03-07T20:33:27.282Z,6.72
2018-03-07T20:35:56.419Z,6.72
2018-03-07T20:38:24.739Z,6.63
2018-03-07T20:40:53.095Z,6.58
2018-03-07T20:43:21.479Z,6.58
2018-03-07T20:45:49.796Z,6.58
2018-03-07T20:48:18.098Z,6.49
2018-03-07T20:50:46.410Z,6.41
2018-03-07T20:53:14.830Z,6.32
2018-03-07T20:55:43.209Z,6.28
2018-03-07T20:58:11.521Z,6.23
2018-03-07T21:00:39.901Z,6.18
2018-03-07T21:03:08.282Z,6.18
2018-03-07T21:05:36.681Z,6.14
2018-03-07T21:08:05.090Z,6.10
2018-03-07T21:10:33.770Z,6.06
2018-03-07T21:13:02.089Z,6.03
2018-03-07T21:15:30.572Z,6.01
2018-03-07T21:17:58.889Z,5.98
2018-03-07T21:20:27.254Z,6.02
2018-03-07T21:22:55.641Z,5.96
2018-03-07T21:25:25.065Z,5.98
2018-03-07T21:27:53.670Z,6.00
2018-03-07T21:30:21.975Z,6.03
2018-03-07T21:32:50.434Z,6.01
2018-03-07T21:35:19.252Z,5.98
2018-03-07T21:37:47.579Z,5.97
2018-03-07T21:40:15.878Z,5.92
2018-03-07T21:42:44.194Z,5.89
2018-03-07T21:45:12.611Z,5.85
2018-03-07T21:47:41.031Z,5.72
2018-03-07T21:50:09.342Z,5.61
2018-03-07T21:52:37.667Z,5.47
2018-03-07T21:55:05.980Z,5.35
2018-03-07T21:57:34.314Z,5.20
2018-03-07T22:00:02.661Z,5.04
2018-03-07T22:02:31.046Z,4.88
2018-03-07T22:04:59.460Z,4.87
2018-03-07T22:07:27.777Z,4.66
2018-03-07T22:09:56.102Z,4.69
2018-03-07T22:12:24.417Z,4.52
2018-03-07T22:14:52.761Z,4.35
2018-03-07T22:17:21.553Z,4.18
2018-03-07T22:19:49.916Z,3.99
2018-03-07T22:22:18.213Z,3.80
2018-03-07T22:24:46.525Z,3.64
2018-03-07T22:27:14.836Z,3.54
2018-03-07T22:29:43.155Z,3.42
2018-03-07T22:32:11.476Z,3.34
2018-03-07T22:34:39.841Z,3.33
2018-03-07T22:37:08.153Z,3.36
2018-03-07T22:39:36.513Z,3.40
2018-03-07T22:42:04.825Z,3.27
2018-03-07T22:44:33.136Z,3.22
2018-03-07T22:47:01.455Z,3.11
2018-03-07T22:49:29.855Z,3.27
2018-03-07T22:51:58.170Z,3.13
2018-03-07T22:54:26.567Z,3.11
2018-03-07T22:56:54.926Z,2.96
2018-03-07T22:59:23.248Z,2.93
2018-03-07T23:01:51.569Z,2.91
2018-03-07T23:04:19.881Z,2.90
2018-03-07T23:06:48.226Z,2.94
2018-03-07T23:09:16.540Z,2.89
2018-03-07T23:11:44.931Z,2.82
2018-03-07T23:14:13.395Z,2.78
2018-03-07T23:16:41.734Z,2.72
2018-03-07T23:19:10.076Z,2.71
2018-03-07T23:21:38.404Z,2.78
2018-03-07T23:24:06.717Z,2.86
2018-03-07T23:26:35.037Z,2.91
2018-03-07T23:29:03.344Z,2.84
2018-03-07T23:31:31.733Z,3.04
2018-03-07T23:34:00.048Z,3.00
2018-03-07T23:36:28.358Z,2.97
2018-03-07T23:38:56.693Z,2.88
2018-03-07T23:41:25.005Z,2.79
2018-03-07T23:43:53.320Z,2.80
2018-03-07T23:46:21.649Z,2.74
2018-03-07T23:48:49.941Z,2.62
2018-03-07T23:51:18.279Z,2.55
2018-03-07T23:53:46.590Z,2.68
2018-03-07T23:56:14.904Z,2.71
2018-03-07T23:58:43.207Z,2.79
